sensor_id;sensor_type;location;lat;lon;timestamp;P1;durP1;ratioP1;P2;durP2;ratioP2
17784;SDS011;9016;53.582;10.062;2023-02-28T00:01:28;8.10;;;3.87;;
17784;SDS011;9016;53.582;10.062;2023-02-28T00:03:58;7.20;;;4.07;;
17784;SDS011;9016;53.582;10.062;2023-02-28T00:06:26;8.37;;;4.20;;
17784;SDS011;9016;53.582;10.062;2023-02-28T00:08:55;5.97;;;3.60;;
17784;SDS011;9016;53.582;10.062;2023-02-28T00:11:25;6.47;;;3.90;;
17784;SDS011;9016;53.582;10.062;2023-02-28T00:13:54;8.53;;;4.20;;
17784;SDS011;9016;53.582;10.062;2023-02-28T00:16:22;5.30;;;3.83;;
17784;SDS011;9016;53.582;10.062;2023-02-28T00:18:50;8.83;;;4.27;;
17784;SDS011;9016;53.582;10.062;2023-02-28T00:21:20;6.43;;;3.97;;
17784;SDS011;9016;53.582;10.062;2023-02-28T00:23:48;8.80;;;4.17;;
17784;SDS011;9016;53.582;10.062;2023-02-28T00:26:16;7.17;;;4.13;;
17784;SDS011;9016;53.582;10.062;2023-02-28T00:28:47;7.60;;;4.10;;
17784;SDS011;9016;53.582;10.062;2023-02-28T00:31:15;7.33;;;4.10;;
17784;SDS011;9016;53.582;10.062;2023-02-28T00:33:43;7.93;;;3.97;;
17784;SDS011;9016;53.582;10.062;2023-02-28T00:36:12;6.23;;;4.37;;
17784;SDS011;9016;53.582;10.062;2023-02-28T00:38:43;6.47;;;4.10;;
17784;SDS011;9016;53.582;10.062;2023-02-28T00:41:11;5.43;;;3.80;;
17784;SDS011;9016;53.582;10.062;2023-02-28T00:43:39;6.77;;;3.80;;
17784;SDS011;9016;53.582;10.062;2023-02-28T00:46:10;7.10;;;4.03;;
17784;SDS011;9016;53.582;10.062;2023-02-28T00:48:38;6.00;;;3.90;;
17784;SDS011;9016;53.582;10.062;2023-02-28T00:51:06;6.60;;;4.10;;
17784;SDS011;9016;53.582;10.062;2023-02-28T00:53:34;5.67;;;3.83;;
17784;SDS011;9016;53.582;10.062;2023-02-28T00:56:03;8.43;;;4.30;;
17784;SDS011;9016;53.582;10.062;2023-02-28T00:58:32;5.93;;;3.60;;
17784;SDS011;9016;53.582;10.062;2023-02-28T01:01:00;6.30;;;3.93;;
17784;SDS011;9016;53.582;10.062;2023-02-28T01:03:28;6.17;;;3.23;;
17784;SDS011;9016;53.582;10.062;2023-02-28T01:05:57;5.07;;;3.03;;
17784;SDS011;9016;53.582;10.062;2023-02-28T01:08:26;4.90;;;3.17;;
17784;SDS011;9016;53.582;10.062;2023-02-28T01:10:54;6.30;;;3.50;;
17784;SDS011;9016;53.582;10.062;2023-02-28T01:13:23;5.33;;;3.50;;
17784;SDS011;9016;53.582;10.062;2023-02-28T01:15:52;6.67;;;3.40;;
17784;SDS011;9016;53.582;10.062;2023-02-28T01:18:23;6.43;;;3.47;;
17784;SDS011;9016;53.582;10.062;2023-02-28T01:20:51;5.63;;;3.57;;
17784;SDS011;9016;53.582;10.062;2023-02-28T01:23:20;4.90;;;2.90;;
17784;SDS011;9016;53.582;10.062;2023-02-28T01:25:49;5.57;;;3.20;;
17784;SDS011;9016;53.582;10.062;2023-02-28T01:28:17;6.47;;;3.27;;
17784;SDS011;9016;53.582;10.062;2023-02-28T01:30:48;6.30;;;3.40;;
17784;SDS011;9016;53.582;10.062;2023-02-28T01:33:17;5.87;;;3.30;;
17784;SDS011;9016;53.582;10.062;2023-02-28T01:35:45;5.43;;;3.40;;
17784;SDS011;9016;53.582;10.062;2023-02-28T01:38:12;6.13;;;3.47;;
17784;SDS011;9016;53.582;10.062;2023-02-28T01:40:47;4.63;;;3.37;;
17784;SDS011;9016;53.582;10.062;2023-02-28T01:43:18;6.00;;;3.50;;
17784;SDS011;9016;53.582;10.062;2023-02-28T01:45:52;4.53;;;3.43;;
17784;SDS011;9016;53.582;10.062;2023-02-28T01:48:21;7.70;;;3.70;;
17784;SDS011;9016;53.582;10.062;2023-02-28T01:50:53;5.90;;;3.20;;
17784;SDS011;9016;53.582;10.062;2023-02-28T01:53:26;9.87;;;4.13;;
17784;SDS011;9016;53.582;10.062;2023-02-28T01:55:58;7.50;;;3.97;;
17784;SDS011;9016;53.582;10.062;2023-02-28T01:58:27;6.37;;;3.67;;
17784;SDS011;9016;53.582;10.062;2023-02-28T02:00:56;7.07;;;3.60;;
17784;SDS011;9016;53.582;10.062;2023-02-28T02:03:24;6.60;;;3.80;;
17784;SDS011;9016;53.582;10.062;2023-02-28T02:05:52;6.27;;;3.67;;
17784;SDS011;9016;53.582;10.062;2023-02-28T02:08:21;5.50;;;4.10;;
17784;SDS011;9016;53.582;10.062;2023-02-28T02:10:53;9.07;;;3.63;;
17784;SDS011;9016;53.582;10.062;2023-02-28T02:16:30;6.97;;;4.20;;
17784;SDS011;9016;53.582;10.062;2023-02-28T02:19:14;7.97;;;4.00;;
17784;SDS011;9016;53.582;10.062;2023-02-28T02:22:09;7.03;;;4.10;;
17784;SDS011;9016;53.582;10.062;2023-02-28T02:24:52;9.03;;;4.53;;
17784;SDS011;9016;53.582;10.062;2023-02-28T02:27:38;5.80;;;4.10;;
17784;SDS011;9016;53.582;10.062;2023-02-28T02:30:21;5.93;;;3.90;;
17784;SDS011;9016;53.582;10.062;2023-02-28T02:33:28;6.17;;;3.73;;
17784;SDS011;9016;53.582;10.062;2023-02-28T02:36:21;5.93;;;3.80;;
17784;SDS011;9016;53.582;10.062;2023-02-28T02:38:53;5.73;;;3.57;;
17784;SDS011;9016;53.582;10.062;2023-02-28T02:41:32;10.83;;;4.53;;
17784;SDS011;9016;53.582;10.062;2023-02-28T02:44:06;9.07;;;4.60;;
17784;SDS011;9016;53.582;10.062;2023-02-28T02:46:41;8.13;;;4.43;;
17784;SDS011;9016;53.582;10.062;2023-02-28T02:49:13;6.67;;;4.00;;
17784;SDS011;9016;53.582;10.062;2023-02-28T02:51:46;6.17;;;3.90;;
17784;SDS011;9016;53.582;10.062;2023-02-28T02:54:16;8.00;;;4.37;;
17784;SDS011;9016;53.582;10.062;2023-02-28T02:56:49;7.70;;;4.30;;
17784;SDS011;9016;53.582;10.062;2023-02-28T02:59:20;6.87;;;4.37;;
17784;SDS011;9016;53.582;10.062;2023-02-28T03:01:50;6.90;;;4.30;;
17784;SDS011;9016;53.582;10.062;2023-02-28T03:04:23;8.43;;;4.40;;
17784;SDS011;9016;53.582;10.062;2023-02-28T03:06:56;7.37;;;4.50;;
17784;SDS011;9016;53.582;10.062;2023-02-28T03:09:25;8.33;;;4.40;;
17784;SDS011;9016;53.582;10.062;2023-02-28T03:11:54;7.63;;;4.40;;
17784;SDS011;9016;53.582;10.062;2023-02-28T03:14:30;6.73;;;4.10;;
17784;SDS011;9016;53.582;10.062;2023-02-28T03:17:18;6.23;;;4.23;;
17784;SDS011;9016;53.582;10.062;2023-02-28T03:19:58;7.53;;;4.27;;
17784;SDS011;9016;53.582;10.062;2023-02-28T03:22:42;7.20;;;4.03;;
17784;SDS011;9016;53.582;10.062;2023-02-28T03:25:20;7.03;;;4.20;;
17784;SDS011;9016;53.582;10.062;2023-02-28T03:28:02;8.07;;;4.70;;
17784;SDS011;9016;53.582;10.062;2023-02-28T03:30:39;7.90;;;4.33;;
17784;SDS011;9016;53.582;10.062;2023-02-28T03:33:14;7.37;;;4.50;;
17784;SDS011;9016;53.582;10.062;2023-02-28T03:35:45;7.50;;;4.50;;
17784;SDS011;9016;53.582;10.062;2023-02-28T03:38:20;6.53;;;4.53;;
17784;SDS011;9016;53.582;10.062;2023-02-28T03:40:55;6.87;;;4.87;;
17784;SDS011;9016;53.582;10.062;2023-02-28T03:43:30;7.17;;;4.87;;
17784;SDS011;9016;53.582;10.062;2023-02-28T03:46:02;8.03;;;4.80;;
17784;SDS011;9016;53.582;10.062;2023-02-28T03:48:38;8.53;;;4.90;;
17784;SDS011;9016;53.582;10.062;2023-02-28T03:51:10;7.83;;;4.47;;
17784;SDS011;9016;53.582;10.062;2023-02-28T03:53:46;7.40;;;5.20;;
17784;SDS011;9016;53.582;10.062;2023-02-28T03:56:18;9.33;;;5.53;;
17784;SDS011;9016;53.582;10.062;2023-02-28T03:58:49;8.77;;;5.70;;
17784;SDS011;9016;53.582;10.062;2023-02-28T04:01:21;9.13;;;5.40;;
17784;SDS011;9016;53.582;10.062;2023-02-28T04:03:55;6.70;;;4.70;;
17784;SDS011;9016;53.582;10.062;2023-02-28T04:06:23;7.30;;;4.60;;
17784;SDS011;9016;53.582;10.062;2023-02-28T04:08:53;7.97;;;4.83;;
17784;SDS011;9016;53.582;10.062;2023-02-28T04:11:22;8.20;;;5.27;;
17784;SDS011;9016;53.582;10.062;2023-02-28T04:13:51;9.60;;;5.30;;
17784;SDS011;9016;53.582;10.062;2023-02-28T04:16:19;8.50;;;5.33;;
17784;SDS011;9016;53.582;10.062;2023-02-28T04:19:00;8.07;;;5.27;;
17784;SDS011;9016;53.582;10.062;2023-02-28T04:21:30;10.77;;;5.30;;
17784;SDS011;9016;53.582;10.062;2023-02-28T04:24:01;7.87;;;4.50;;
17784;SDS011;9016;53.582;10.062;2023-02-28T04:26:29;6.07;;;4.90;;
17784;SDS011;9016;53.582;10.062;2023-02-28T04:28:57;12.13;;;5.50;;
17784;SDS011;9016;53.582;10.062;2023-02-28T04:31:25;9.30;;;5.43;;
17784;SDS011;9016;53.582;10.062;2023-02-28T04:33:54;8.27;;;5.10;;
17784;SDS011;9016;53.582;10.062;2023-02-28T04:36:22;9.07;;;5.40;;
17784;SDS011;9016;53.582;10.062;2023-02-28T04:38:50;7.67;;;4.93;;
17784;SDS011;9016;53.582;10.062;2023-02-28T04:41:20;7.43;;;5.37;;
17784;SDS011;9016;53.582;10.062;2023-02-28T04:43:50;7.43;;;4.90;;
17784;SDS011;9016;53.582;10.062;2023-02-28T04:46:20;8.30;;;5.00;;
17784;SDS011;9016;53.582;10.062;2023-02-28T04:48:48;7.63;;;4.93;;
17784;SDS011;9016;53.582;10.062;2023-02-28T04:51:17;8.03;;;5.40;;
17784;SDS011;9016;53.582;10.062;2023-02-28T04:53:46;7.60;;;4.93;;
17784;SDS011;9016;53.582;10.062;2023-02-28T04:56:15;7.93;;;4.90;;
17784;SDS011;9016;53.582;10.062;2023-02-28T04:58:46;8.07;;;5.40;;
17784;SDS011;9016;53.582;10.062;2023-02-28T05:01:19;8.17;;;5.17;;
17784;SDS011;9016;53.582;10.062;2023-02-28T05:03:51;8.77;;;5.27;;
17784;SDS011;9016;53.582;10.062;2023-02-28T05:06:20;8.70;;;5.70;;
17784;SDS011;9016;53.582;10.062;2023-02-28T05:08:50;11.80;;;5.57;;
17784;SDS011;9016;53.582;10.062;2023-02-28T05:11:19;8.83;;;5.67;;
17784;SDS011;9016;53.582;10.062;2023-02-28T05:13:50;9.63;;;5.37;;
17784;SDS011;9016;53.582;10.062;2023-02-28T05:16:19;8.23;;;5.47;;
17784;SDS011;9016;53.582;10.062;2023-02-28T05:18:48;10.97;;;5.70;;
17784;SDS011;9016;53.582;10.062;2023-02-28T05:21:23;10.03;;;5.90;;
17784;SDS011;9016;53.582;10.062;2023-02-28T05:23:55;9.47;;;5.53;;
17784;SDS011;9016;53.582;10.062;2023-02-28T05:26:25;8.77;;;5.63;;
17784;SDS011;9016;53.582;10.062;2023-02-28T05:28:55;7.87;;;5.43;;
17784;SDS011;9016;53.582;10.062;2023-02-28T05:31:24;23.30;;;11.90;;
17784;SDS011;9016;53.582;10.062;2023-02-28T05:33:53;13.73;;;7.20;;
17784;SDS011;9016;53.582;10.062;2023-02-28T05:36:21;9.27;;;6.33;;
17784;SDS011;9016;53.582;10.062;2023-02-28T05:38:49;9.93;;;6.53;;
17784;SDS011;9016;53.582;10.062;2023-02-28T05:41:19;9.83;;;6.87;;
17784;SDS011;9016;53.582;10.062;2023-02-28T05:43:47;8.00;;;6.07;;
17784;SDS011;9016;53.582;10.062;2023-02-28T05:46:17;10.23;;;6.40;;
17784;SDS011;9016;53.582;10.062;2023-02-28T05:48:45;8.97;;;6.33;;
17784;SDS011;9016;53.582;10.062;2023-02-28T05:51:15;8.83;;;5.60;;
17784;SDS011;9016;53.582;10.062;2023-02-28T05:53:44;10.33;;;6.40;;
17784;SDS011;9016;53.582;10.062;2023-02-28T05:56:12;9.97;;;6.10;;
17784;SDS011;9016;53.582;10.062;2023-02-28T05:58:40;13.23;;;6.47;;
17784;SDS011;9016;53.582;10.062;2023-02-28T06:01:23;9.37;;;6.67;;
17784;SDS011;9016;53.582;10.062;2023-02-28T06:03:58;9.87;;;6.37;;
17784;SDS011;9016;53.582;10.062;2023-02-28T06:06:26;9.80;;;5.97;;
17784;SDS011;9016;53.582;10.062;2023-02-28T06:08:54;8.57;;;5.80;;
17784;SDS011;9016;53.582;10.062;2023-02-28T06:11:22;8.63;;;5.83;;
17784;SDS011;9016;53.582;10.062;2023-02-28T06:13:54;9.13;;;5.93;;
17784;SDS011;9016;53.582;10.062;2023-02-28T06:16:24;10.50;;;6.10;;
17784;SDS011;9016;53.582;10.062;2023-02-28T06:18:53;9.17;;;6.20;;
17784;SDS011;9016;53.582;10.062;2023-02-28T06:21:23;10.17;;;6.80;;
17784;SDS011;9016;53.582;10.062;2023-02-28T06:23:51;10.27;;;6.77;;
17784;SDS011;9016;53.582;10.062;2023-02-28T06:26:19;10.27;;;6.43;;
17784;SDS011;9016;53.582;10.062;2023-02-28T06:28:47;10.17;;;6.70;;
17784;SDS011;9016;53.582;10.062;2023-02-28T06:31:17;13.43;;;6.97;;
17784;SDS011;9016;53.582;10.062;2023-02-28T06:33:47;10.03;;;6.63;;
17784;SDS011;9016;53.582;10.062;2023-02-28T06:36:15;12.87;;;6.43;;
17784;SDS011;9016;53.582;10.062;2023-02-28T06:38:44;11.50;;;6.90;;
17784;SDS011;9016;53.582;10.062;2023-02-28T06:41:17;10.33;;;6.90;;
17784;SDS011;9016;53.582;10.062;2023-02-28T06:43:45;11.30;;;6.83;;
17784;SDS011;9016;53.582;10.062;2023-02-28T06:46:13;15.10;;;7.20;;
17784;SDS011;9016;53.582;10.062;2023-02-28T06:48:42;9.13;;;6.03;;
17784;SDS011;9016;53.582;10.062;2023-02-28T06:51:13;11.97;;;6.67;;
17784;SDS011;9016;53.582;10.062;2023-02-28T06:53:42;8.30;;;5.97;;
17784;SDS011;9016;53.582;10.062;2023-02-28T06:56:11;9.77;;;6.70;;
17784;SDS011;9016;53.582;10.062;2023-02-28T06:58:41;9.10;;;6.23;;
17784;SDS011;9016;53.582;10.062;2023-02-28T07:01:10;9.43;;;6.00;;
17784;SDS011;9016;53.582;10.062;2023-02-28T07:03:38;9.20;;;6.20;;
17784;SDS011;9016;53.582;10.062;2023-02-28T07:06:06;10.20;;;6.53;;
17784;SDS011;9016;53.582;10.062;2023-02-28T07:08:35;10.27;;;6.40;;
17784;SDS011;9016;53.582;10.062;2023-02-28T07:11:03;12.60;;;6.30;;
17784;SDS011;9016;53.582;10.062;2023-02-28T07:13:32;10.50;;;6.20;;
17784;SDS011;9016;53.582;10.062;2023-02-28T07:16:00;11.40;;;5.80;;
17784;SDS011;9016;53.582;10.062;2023-02-28T07:18:30;9.63;;;5.70;;
17784;SDS011;9016;53.582;10.062;2023-02-28T07:21:01;8.77;;;5.53;;
17784;SDS011;9016;53.582;10.062;2023-02-28T07:23:29;9.47;;;5.63;;
17784;SDS011;9016;53.582;10.062;2023-02-28T07:25:59;9.77;;;5.70;;
17784;SDS011;9016;53.582;10.062;2023-02-28T07:28:27;9.40;;;5.40;;
17784;SDS011;9016;53.582;10.062;2023-02-28T07:30:55;8.60;;;5.70;;
17784;SDS011;9016;53.582;10.062;2023-02-28T07:33:23;7.63;;;5.57;;
17784;SDS011;9016;53.582;10.062;2023-02-28T07:35:51;10.47;;;5.50;;
17784;SDS011;9016;53.582;10.062;2023-02-28T07:38:19;10.57;;;6.00;;
17784;SDS011;9016;53.582;10.062;2023-02-28T07:40:47;7.73;;;5.83;;
17784;SDS011;9016;53.582;10.062;2023-02-28T07:43:17;11.10;;;6.00;;
17784;SDS011;9016;53.582;10.062;2023-02-28T07:45:45;8.53;;;5.93;;
17784;SDS011;9016;53.582;10.062;2023-02-28T07:48:13;9.30;;;6.10;;
17784;SDS011;9016;53.582;10.062;2023-02-28T07:50:42;12.77;;;6.77;;
17784;SDS011;9016;53.582;10.062;2023-02-28T07:53:10;10.37;;;5.87;;
17784;SDS011;9016;53.582;10.062;2023-02-28T07:55:38;12.97;;;6.00;;
17784;SDS011;9016;53.582;10.062;2023-02-28T07:58:06;11.33;;;6.80;;
17784;SDS011;9016;53.582;10.062;2023-02-28T08:00:38;12.97;;;6.17;;
17784;SDS011;9016;53.582;10.062;2023-02-28T08:03:07;11.37;;;6.23;;
17784;SDS011;9016;53.582;10.062;2023-02-28T08:05:38;13.57;;;6.93;;
17784;SDS011;9016;53.582;10.062;2023-02-28T08:08:06;15.23;;;6.53;;
17784;SDS011;9016;53.582;10.062;2023-02-28T08:10:35;11.87;;;7.07;;
17784;SDS011;9016;53.582;10.062;2023-02-28T08:13:10;11.73;;;7.23;;
17784;SDS011;9016;53.582;10.062;2023-02-28T08:15:39;10.90;;;6.27;;
17784;SDS011;9016;53.582;10.062;2023-02-28T08:18:08;9.93;;;6.53;;
17784;SDS011;9016;53.582;10.062;2023-02-28T08:20:36;10.97;;;6.87;;
17784;SDS011;9016;53.582;10.062;2023-02-28T08:23:07;9.83;;;5.77;;
17784;SDS011;9016;53.582;10.062;2023-02-28T08:25:35;10.33;;;6.10;;
17784;SDS011;9016;53.582;10.062;2023-02-28T08:28:03;10.80;;;6.10;;
17784;SDS011;9016;53.582;10.062;2023-02-28T08:30:31;12.80;;;6.50;;
17784;SDS011;9016;53.582;10.062;2023-02-28T08:33:01;10.97;;;6.37;;
17784;SDS011;9016;53.582;10.062;2023-02-28T08:35:29;10.27;;;6.93;;
17784;SDS011;9016;53.582;10.062;2023-02-28T08:37:59;12.80;;;6.90;;
17784;SDS011;9016;53.582;10.062;2023-02-28T08:40:27;12.33;;;6.73;;
17784;SDS011;9016;53.582;10.062;2023-02-28T08:42:55;12.73;;;7.33;;
17784;SDS011;9016;53.582;10.062;2023-02-28T08:45:23;14.30;;;7.30;;
17784;SDS011;9016;53.582;10.062;2023-02-28T08:47:51;15.53;;;6.70;;
17784;SDS011;9016;53.582;10.062;2023-02-28T08:50:25;14.53;;;7.53;;
17784;SDS011;9016;53.582;10.062;2023-02-28T08:52:53;13.30;;;8.00;;
17784;SDS011;9016;53.582;10.062;2023-02-28T08:55:22;11.57;;;7.60;;
17784;SDS011;9016;53.582;10.062;2023-02-28T08:57:50;13.17;;;6.70;;
17784;SDS011;9016;53.582;10.062;2023-02-28T09:00:19;14.07;;;6.97;;
17784;SDS011;9016;53.582;10.062;2023-02-28T09:02:48;11.27;;;6.53;;
17784;SDS011;9016;53.582;10.062;2023-02-28T09:05:16;10.93;;;6.93;;
17784;SDS011;9016;53.582;10.062;2023-02-28T09:07:48;11.73;;;6.50;;
17784;SDS011;9016;53.582;10.062;2023-02-28T09:10:19;9.40;;;6.13;;
17784;SDS011;9016;53.582;10.062;2023-02-28T09:12:47;13.80;;;6.63;;
17784;SDS011;9016;53.582;10.062;2023-02-28T09:15:15;11.93;;;6.63;;
17784;SDS011;9016;53.582;10.062;2023-02-28T09:17:44;11.80;;;6.03;;
17784;SDS011;9016;53.582;10.062;2023-02-28T09:20:14;10.63;;;6.30;;
17784;SDS011;9016;53.582;10.062;2023-02-28T09:22:43;13.57;;;6.70;;
17784;SDS011;9016;53.582;10.062;2023-02-28T09:25:13;10.47;;;5.73;;
17784;SDS011;9016;53.582;10.062;2023-02-28T09:27:41;9.27;;;5.13;;
17784;SDS011;9016;53.582;10.062;2023-02-28T09:30:10;7.20;;;4.73;;
17784;SDS011;9016;53.582;10.062;2023-02-28T09:32:40;10.17;;;5.07;;
17784;SDS011;9016;53.582;10.062;2023-02-28T09:35:08;7.97;;;4.03;;
17784;SDS011;9016;53.582;10.062;2023-02-28T09:37:40;6.17;;;3.40;;
17784;SDS011;9016;53.582;10.062;2023-02-28T09:40:09;5.10;;;3.47;;
17784;SDS011;9016;53.582;10.062;2023-02-28T09:42:40;5.93;;;3.83;;
17784;SDS011;9016;53.582;10.062;2023-02-28T09:45:12;5.30;;;3.40;;
17784;SDS011;9016;53.582;10.062;2023-02-28T09:47:47;4.93;;;3.07;;
17784;SDS011;9016;53.582;10.062;2023-02-28T09:50:18;5.33;;;2.87;;
17784;SDS011;9016;53.582;10.062;2023-02-28T09:52:56;6.83;;;3.07;;
17784;SDS011;9016;53.582;10.062;2023-02-28T09:55:27;5.20;;;3.03;;
17784;SDS011;9016;53.582;10.062;2023-02-28T09:58:14;4.00;;;2.77;;
17784;SDS011;9016;53.582;10.062;2023-02-28T10:00:46;6.90;;;3.10;;
17784;SDS011;9016;53.582;10.062;2023-02-28T10:03:27;6.57;;;3.70;;
17784;SDS011;9016;53.582;10.062;2023-02-28T10:06:03;9.53;;;3.50;;
17784;SDS011;9016;53.582;10.062;2023-02-28T10:08:36;6.17;;;3.13;;
17784;SDS011;9016;53.582;10.062;2023-02-28T10:11:12;6.73;;;3.27;;
17784;SDS011;9016;53.582;10.062;2023-02-28T10:13:51;3.97;;;3.30;;
17784;SDS011;9016;53.582;10.062;2023-02-28T10:16:24;8.27;;;3.03;;
17784;SDS011;9016;53.582;10.062;2023-02-28T10:18:57;7.33;;;3.43;;
17784;SDS011;9016;53.582;10.062;2023-02-28T10:21:30;5.67;;;2.93;;
17784;SDS011;9016;53.582;10.062;2023-02-28T10:24:11;6.67;;;3.30;;
17784;SDS011;9016;53.582;10.062;2023-02-28T10:26:47;7.63;;;3.33;;
17784;SDS011;9016;53.582;10.062;2023-02-28T10:29:18;6.63;;;3.30;;
17784;SDS011;9016;53.582;10.062;2023-02-28T10:31:47;4.50;;;2.63;;
17784;SDS011;9016;53.582;10.062;2023-02-28T10:34:15;5.40;;;2.77;;
17784;SDS011;9016;53.582;10.062;2023-02-28T10:36:43;4.63;;;3.00;;
17784;SDS011;9016;53.582;10.062;2023-02-28T10:42:02;5.80;;;2.93;;
17784;SDS011;9016;53.582;10.062;2023-02-28T10:44:32;4.20;;;2.60;;
17784;SDS011;9016;53.582;10.062;2023-02-28T10:47:00;5.83;;;2.97;;
17784;SDS011;9016;53.582;10.062;2023-02-28T10:49:29;5.20;;;2.83;;
17784;SDS011;9016;53.582;10.062;2023-02-28T10:51:57;3.17;;;2.87;;
17784;SDS011;9016;53.582;10.062;2023-02-28T10:54:29;3.87;;;3.00;;
17784;SDS011;9016;53.582;10.062;2023-02-28T10:57:18;3.60;;;2.47;;
17784;SDS011;9016;53.582;10.062;2023-02-28T10:59:52;5.37;;;2.50;;
17784;SDS011;9016;53.582;10.062;2023-02-28T11:02:34;6.73;;;2.40;;
17784;SDS011;9016;53.582;10.062;2023-02-28T11:07:54;5.77;;;2.93;;
17784;SDS011;9016;53.582;10.062;2023-02-28T11:10:30;6.40;;;2.87;;
17784;SDS011;9016;53.582;10.062;2023-02-28T11:13:01;6.13;;;2.50;;
17784;SDS011;9016;53.582;10.062;2023-02-28T11:15:31;3.93;;;2.60;;
17784;SDS011;9016;53.582;10.062;2023-02-28T11:18:01;4.57;;;2.60;;
17784;SDS011;9016;53.582;10.062;2023-02-28T11:20:47;4.93;;;2.60;;
17784;SDS011;9016;53.582;10.062;2023-02-28T11:23:17;5.37;;;2.70;;
17784;SDS011;9016;53.582;10.062;2023-02-28T11:25:47;3.77;;;2.97;;
17784;SDS011;9016;53.582;10.062;2023-02-28T11:28:24;6.33;;;3.90;;
17784;SDS011;9016;53.582;10.062;2023-02-28T11:31:09;5.63;;;3.33;;
17784;SDS011;9016;53.582;10.062;2023-02-28T11:33:46;3.70;;;2.67;;
17784;SDS011;9016;53.582;10.062;2023-02-28T11:36:18;4.27;;;3.17;;
17784;SDS011;9016;53.582;10.062;2023-02-28T11:38:48;5.40;;;2.87;;
17784;SDS011;9016;53.582;10.062;2023-02-28T11:44:17;6.13;;;2.73;;
17784;SDS011;9016;53.582;10.062;2023-02-28T11:46:53;6.73;;;2.97;;
17784;SDS011;9016;53.582;10.062;2023-02-28T11:49:30;8.20;;;2.90;;
17784;SDS011;9016;53.582;10.062;2023-02-28T11:52:04;5.47;;;2.90;;
17784;SDS011;9016;53.582;10.062;2023-02-28T11:54:53;4.87;;;2.90;;
17784;SDS011;9016;53.582;10.062;2023-02-28T11:57:31;3.67;;;2.60;;
17784;SDS011;9016;53.582;10.062;2023-02-28T12:00:08;5.27;;;3.10;;
17784;SDS011;9016;53.582;10.062;2023-02-28T12:03:00;6.47;;;3.33;;
17784;SDS011;9016;53.582;10.062;2023-02-28T12:05:41;5.30;;;3.07;;
17784;SDS011;9016;53.582;10.062;2023-02-28T12:08:20;5.27;;;3.10;;
17784;SDS011;9016;53.582;10.062;2023-02-28T12:11:04;3.90;;;3.17;;
17784;SDS011;9016;53.582;10.062;2023-02-28T12:13:43;4.43;;;3.20;;
17784;SDS011;9016;53.582;10.062;2023-02-28T12:16:21;4.13;;;2.70;;
17784;SDS011;9016;53.582;10.062;2023-02-28T12:19:09;7.20;;;3.00;;
17784;SDS011;9016;53.582;10.062;2023-02-28T12:22:00;3.03;;;2.47;;
17784;SDS011;9016;53.582;10.062;2023-02-28T12:24:52;3.77;;;2.50;;
17784;SDS011;9016;53.582;10.062;2023-02-28T12:27:30;3.43;;;2.70;;
17784;SDS011;9016;53.582;10.062;2023-02-28T12:30:04;4.40;;;2.80;;
17784;SDS011;9016;53.582;10.062;2023-02-28T12:32:41;4.67;;;2.70;;
17784;SDS011;9016;53.582;10.062;2023-02-28T12:35:13;5.47;;;2.93;;
17784;SDS011;9016;53.582;10.062;2023-02-28T12:37:46;4.27;;;3.20;;
17784;SDS011;9016;53.582;10.062;2023-02-28T12:40:20;5.07;;;3.13;;
17784;SDS011;9016;53.582;10.062;2023-02-28T12:42:51;3.70;;;2.30;;
17784;SDS011;9016;53.582;10.062;2023-02-28T12:45:24;3.10;;;2.70;;
17784;SDS011;9016;53.582;10.062;2023-02-28T12:48:07;6.03;;;2.77;;
17784;SDS011;9016;53.582;10.062;2023-02-28T12:50:46;3.57;;;2.90;;
17784;SDS011;9016;53.582;10.062;2023-02-28T12:53:18;4.87;;;2.67;;
17784;SDS011;9016;53.582;10.062;2023-02-28T12:55:57;3.43;;;2.80;;
17784;SDS011;9016;53.582;10.062;2023-02-28T12:58:35;6.63;;;2.93;;
17784;SDS011;9016;53.582;10.062;2023-02-28T13:01:14;3.33;;;2.70;;
17784;SDS011;9016;53.582;10.062;2023-02-28T13:07:22;4.80;;;2.73;;
17784;SDS011;9016;53.582;10.062;2023-02-28T13:10:11;5.10;;;3.03;;
17784;SDS011;9016;53.582;10.062;2023-02-28T13:12:46;5.43;;;3.17;;
17784;SDS011;9016;53.582;10.062;2023-02-28T13:15:17;4.57;;;2.67;;
17784;SDS011;9016;53.582;10.062;2023-02-28T13:17:50;3.43;;;2.60;;
17784;SDS011;9016;53.582;10.062;2023-02-28T13:20:21;3.83;;;3.10;;
17784;SDS011;9016;53.582;10.062;2023-02-28T13:22:55;5.23;;;3.20;;
17784;SDS011;9016;53.582;10.062;2023-02-28T13:25:49;4.80;;;2.80;;
17784;SDS011;9016;53.582;10.062;2023-02-28T13:34:39;3.77;;;2.63;;
17784;SDS011;9016;53.582;10.062;2023-02-28T13:43:06;6.77;;;3.00;;
17784;SDS011;9016;53.582;10.062;2023-02-28T13:45:35;5.20;;;2.73;;
17784;SDS011;9016;53.582;10.062;2023-02-28T13:48:12;8.00;;;4.47;;
17784;SDS011;9016;53.582;10.062;2023-02-28T13:50:44;6.47;;;3.10;;
17784;SDS011;9016;53.582;10.062;2023-02-28T13:53:34;5.43;;;2.80;;
17784;SDS011;9016;53.582;10.062;2023-02-28T13:56:33;5.50;;;2.90;;
17784;SDS011;9016;53.582;10.062;2023-02-28T13:59:14;9.73;;;7.47;;
17784;SDS011;9016;53.582;10.062;2023-02-28T14:01:54;4.17;;;3.53;;
17784;SDS011;9016;53.582;10.062;2023-02-28T14:04:37;5.13;;;3.50;;
17784;SDS011;9016;53.582;10.062;2023-02-28T14:07:17;4.67;;;3.00;;
17784;SDS011;9016;53.582;10.062;2023-02-28T14:09:51;5.10;;;3.10;;
17784;SDS011;9016;53.582;10.062;2023-02-28T14:15:38;5.07;;;3.70;;
17784;SDS011;9016;53.582;10.062;2023-02-28T14:18:15;5.57;;;3.80;;
17784;SDS011;9016;53.582;10.062;2023-02-28T14:20:47;9.13;;;5.00;;
17784;SDS011;9016;53.582;10.062;2023-02-28T14:23:19;4.50;;;3.70;;
17784;SDS011;9016;53.582;10.062;2023-02-28T14:26:01;6.47;;;3.73;;
17784;SDS011;9016;53.582;10.062;2023-02-28T14:28:40;7.17;;;3.40;;
17784;SDS011;9016;53.582;10.062;2023-02-28T14:31:18;8.07;;;4.17;;
17784;SDS011;9016;53.582;10.062;2023-02-28T14:36:51;4.60;;;2.63;;
17784;SDS011;9016;53.582;10.062;2023-02-28T14:39:21;4.73;;;2.73;;
17784;SDS011;9016;53.582;10.062;2023-02-28T14:41:52;4.00;;;2.77;;
17784;SDS011;9016;53.582;10.062;2023-02-28T14:44:22;3.33;;;2.50;;
17784;SDS011;9016;53.582;10.062;2023-02-28T14:46:54;6.50;;;3.13;;
17784;SDS011;9016;53.582;10.062;2023-02-28T14:49:24;6.40;;;3.40;;
17784;SDS011;9016;53.582;10.062;2023-02-28T14:52:02;4.70;;;3.33;;
17784;SDS011;9016;53.582;10.062;2023-02-28T14:54:36;3.77;;;2.70;;
17784;SDS011;9016;53.582;10.062;2023-02-28T14:57:05;3.87;;;2.53;;
17784;SDS011;9016;53.582;10.062;2023-02-28T14:59:34;6.73;;;3.37;;
17784;SDS011;9016;53.582;10.062;2023-02-28T15:02:21;3.33;;;2.70;;
17784;SDS011;9016;53.582;10.062;2023-02-28T15:04:54;3.13;;;2.60;;
17784;SDS011;9016;53.582;10.062;2023-02-28T15:07:24;5.67;;;3.60;;
17784;SDS011;9016;53.582;10.062;2023-02-28T15:10:09;3.30;;;2.53;;
17784;SDS011;9016;53.582;10.062;2023-02-28T15:12:38;3.57;;;2.47;;
17784;SDS011;9016;53.582;10.062;2023-02-28T15:15:14;7.43;;;5.23;;
17784;SDS011;9016;53.582;10.062;2023-02-28T15:17:45;6.13;;;3.70;;
17784;SDS011;9016;53.582;10.062;2023-02-28T15:20:17;3.40;;;2.60;;
17784;SDS011;9016;53.582;10.062;2023-02-28T15:22:48;3.33;;;2.43;;
17784;SDS011;9016;53.582;10.062;2023-02-28T15:25:21;3.80;;;2.53;;
17784;SDS011;9016;53.582;10.062;2023-02-28T15:27:52;4.90;;;2.80;;
17784;SDS011;9016;53.582;10.062;2023-02-28T15:30:24;4.50;;;2.50;;
17784;SDS011;9016;53.582;10.062;2023-02-28T15:33:06;5.80;;;2.70;;
17784;SDS011;9016;53.582;10.062;2023-02-28T15:35:45;3.33;;;2.90;;
17784;SDS011;9016;53.582;10.062;2023-02-28T15:38:16;3.63;;;2.60;;
17784;SDS011;9016;53.582;10.062;2023-02-28T15:40:50;3.20;;;2.60;;
17784;SDS011;9016;53.582;10.062;2023-02-28T15:43:24;3.57;;;2.90;;
17784;SDS011;9016;53.582;10.062;2023-02-28T15:45:55;4.30;;;2.90;;
17784;SDS011;9016;53.582;10.062;2023-02-28T15:48:28;3.73;;;2.73;;
17784;SDS011;9016;53.582;10.062;2023-02-28T15:51:02;6.47;;;2.87;;